Pagina principale
METAR-TAF:

METAR-TAF

Aeroporti :

Piattaforma petrolifera

Goeree Le, Paesi Bassi

latitudine: 51-55-33N, longitudine: 3-40-12E, altezza: 19 m

Osservazione

Il bollettino è stato emesso 33 minuti fa, alle 02:55 UTC
Vento 9 kt da ovest
Temperature 8°C
Umidità 61%
Pressione 1022 hPa
Visibilità 10 km o più

METAR: EHSC 240255Z AUTO 28009KT 9999 ///////// 08/01 Q1022 W08/H18

Ora: 04:28 (03:28 UTC)


TAF: mancante

Osservazioni e previsioni meteorologiche di più di 4000 aeroporti (messaggi METAR e TAF).

Le stazioni disponibili sono rappresentate dai dischi gialli e rossi sulla carta.

Puntare il mouse per vedere il nome della stazione.

Clicca sopra per visualizzare le osservazioni e previsioni meteorologiche.

Per cambiare la mappa : fare clic sui pulsanti verdi con una croce nera per ingrandire, il pulsante verde con un trattino per diminuire, o sulla freccia verde per le mappe adiacenti.


METAR-TAF: